createdAt,value
2019-04-05T04:46:59.979Z,99691.47
2019-04-05T04:49:27.056Z,99694.47
2019-04-05T04:51:53.932Z,99693.69
2019-04-05T04:54:20.718Z,99692.25
2019-04-05T04:56:47.474Z,99689.37
2019-04-05T04:59:14.363Z,99685.55
2019-04-05T05:01:41.186Z,99697.56
2019-04-05T05:04:08.411Z,99692.06
2019-04-05T05:06:35.296Z,99692.72
2019-04-05T05:09:05.250Z,99696.61
2019-04-05T05:11:32.032Z,99712.34
2019-04-05T05:13:58.825Z,99712.69
2019-04-05T05:16:25.881Z,99712.69
2019-04-05T05:18:52.637Z,99710.56
2019-04-05T05:21:19.511Z,99713.66
2019-04-05T05:23:46.386Z,99713.39
2019-04-05T05:26:13.165Z,99717.94
2019-04-05T05:28:39.935Z,99723.08
2019-04-05T05:31:06.822Z,99725.89
2019-04-05T05:33:33.585Z,99726.94
2019-04-05T05:36:00.470Z,99720.88
2019-04-05T05:38:27.658Z,99724.31
2019-04-05T05:40:54.440Z,99721.42
2019-04-05T05:43:23.726Z,99727.28
2019-04-05T05:45:49.906Z,99726.58
2019-04-05T05:48:16.874Z,99733.77
2019-04-05T05:50:44.141Z,99733.16
2019-04-05T05:53:12.409Z,99730.38
2019-04-05T05:55:39.098Z,99739.41
2019-04-05T05:58:05.879Z,99742.00
2019-04-05T06:00:32.933Z,99745.07
2019-04-05T06:02:59.707Z,99743.62
2019-04-05T06:05:26.372Z,99742.91
2019-04-05T06:07:53.166Z,99736.09
2019-04-05T06:10:19.994Z,99734.95
2019-04-05T06:12:47.724Z,99732.95
2019-04-05T06:15:14.494Z,99726.03
2019-04-05T06:17:41.272Z,99721.22
2019-04-05T06:20:08.585Z,99730.71
2019-04-05T06:22:35.489Z,99744.19
2019-04-05T06:25:02.442Z,99747.28
2019-04-05T06:27:29.107Z,99741.95
2019-04-05T06:29:55.825Z,99746.91
2019-04-05T06:32:22.472Z,99753.09
2019-04-05T06:34:49.202Z,99752.44
2019-04-05T06:37:15.885Z,99750.51
2019-04-05T06:39:42.556Z,99745.57
2019-04-05T06:42:09.411Z,99747.56
2019-04-05T06:44:36.116Z,99753.60
2019-04-05T06:47:03.090Z,99748.80
2019-04-05T06:49:30.565Z,99748.51
2019-04-05T06:51:57.265Z,99760.66
2019-04-05T06:54:24.274Z,99771.69
2019-04-05T06:56:51.056Z,99771.03
2019-04-05T06:59:19.371Z,99772.33
2019-04-05T07:01:46.625Z,99769.47
2019-04-05T07:04:13.392Z,99775.84
2019-04-05T07:06:40.125Z,99781.02
2019-04-05T07:09:08.006Z,99776.77
2019-04-05T07:11:34.699Z,99774.14
2019-04-05T07:14:01.513Z,99780.09
2019-04-05T07:16:28.233Z,99778.77
2019-04-05T07:18:55.007Z,99783.16
2019-04-05T07:21:21.813Z,99787.52
2019-04-05T07:23:48.487Z,99790.34
2019-04-05T07:26:16.468Z,99790.95
2019-04-05T07:28:43.161Z,99797.13
2019-04-05T07:31:09.812Z,99809.23
2019-04-05T07:33:36.823Z,99807.23
2019-04-05T07:36:03.745Z,99807.55
2019-04-05T07:38:30.449Z,99808.59
2019-04-05T07:40:57.252Z,99809.66
2019-04-05T07:43:23.909Z,99813.62
2019-04-05T07:45:50.708Z,99812.52
2019-04-05T07:48:17.493Z,99811.16
2019-04-05T07:50:44.166Z,99808.13
2019-04-05T07:53:10.852Z,99806.33
2019-04-05T07:55:37.642Z,99807.97
2019-04-05T07:58:04.323Z,99810.42
2019-04-05T08:00:44.017Z,99813.68
2019-04-05T08:03:10.715Z,99824.72
2019-04-05T08:05:37.686Z,99828.58
2019-04-05T08:08:06.387Z,99832.48
2019-04-05T08:10:33.370Z,99827.59
2019-04-05T08:13:00.866Z,99830.77
2019-04-05T08:15:28.204Z,99833.91
2019-04-05T08:17:54.927Z,99835.07
2019-04-05T08:20:21.702Z,99839.00
2019-04-05T08:22:48.409Z,99838.84
2019-04-05T08:25:15.166Z,99847.05
2019-04-05T08:27:41.843Z,99844.86
2019-04-05T08:30:08.635Z,99849.93
2019-04-05T08:32:35.313Z,99857.30
2019-04-05T08:35:02.824Z,99857.58
2019-04-05T08:37:29.486Z,99862.33
2019-04-05T08:39:56.150Z,99858.25
2019-04-05T08:42:22.832Z,99861.30
2019-04-05T08:44:49.499Z,99861.39
2019-04-05T08:47:16.198Z,99855.09
2019-04-05T08:49:43.067Z,99851.88
2019-04-05T08:52:09.729Z,99845.41
2019-04-05T08:54:36.919Z,99841.08
2019-04-05T08:57:04.486Z,99850.45
2019-04-05T08:59:31.166Z,99848.59
2019-04-05T09:01:57.846Z,99845.52
2019-04-05T09:04:24.635Z,99847.63
2019-04-05T09:06:51.413Z,99844.31
2019-04-05T09:09:18.105Z,99852.58
2019-04-05T09:11:44.774Z,99839.39
2019-04-05T09:14:11.461Z,99839.39
2019-04-05T09:16:38.229Z,99846.02
2019-04-05T09:19:04.991Z,99846.57
2019-04-05T09:21:31.788Z,99847.61
2019-04-05T09:23:59.353Z,99852.28
2019-04-05T09:26:26.354Z,99856.37
2019-04-05T09:28:53.139Z,99856.37
2019-04-05T09:31:19.824Z,99844.63
2019-04-05T09:33:46.511Z,99844.64
2019-04-05T09:36:13.486Z,99847.77
2019-04-05T09:38:40.155Z,99855.92
2019-04-05T09:41:06.830Z,99857.22
2019-04-05T09:43:33.630Z,99843.73
2019-04-05T09:46:00.310Z,99843.73
2019-04-05T09:48:27.203Z,99854.32
2019-04-05T09:50:53.882Z,99844.83
2019-04-05T09:53:20.580Z,99852.41
2019-04-05T09:55:47.302Z,99847.23
2019-04-05T09:58:13.972Z,99856.88
2019-04-05T10:00:40.645Z,99855.40
2019-04-05T10:03:07.334Z,99856.48
2019-04-05T10:05:34.125Z,99859.13
2019-04-05T10:08:00.912Z,99861.24
2019-04-05T10:10:27.940Z,99856.70
2019-04-05T10:12:54.622Z,99856.70
2019-04-05T10:15:21.926Z,99863.77
2019-04-05T10:17:48.904Z,99863.14
2019-04-05T10:20:15.739Z,99874.36
2019-04-05T10:22:42.520Z,99880.96
2019-04-05T10:25:09.438Z,99880.96
2019-04-05T10:27:36.128Z,99882.48
2019-04-05T10:30:04.606Z,99888.84
2019-04-05T10:32:31.304Z,99890.70
2019-04-05T10:34:58.011Z,99897.83
2019-04-05T10:37:24.781Z,99900.67
2019-04-05T10:39:51.573Z,99900.67
2019-04-05T10:42:32.513Z,99893.28
2019-04-05T10:44:59.411Z,99897.86
2019-04-05T10:47:26.726Z,99892.84
2019-04-05T10:50:03.127Z,99890.58
2019-04-05T10:52:22.382Z,99894.81
2019-04-05T10:54:49.056Z,99892.25
2019-04-05T10:57:15.772Z,99892.25
2019-04-05T10:59:42.440Z,99893.31
2019-04-05T11:02:09.219Z,99892.80
2019-04-05T11:04:36.005Z,99892.80
2019-04-05T11:07:02.810Z,99893.48
2019-04-05T11:09:29.578Z,99901.22
2019-04-05T11:11:56.265Z,99901.92
2019-04-05T11:14:23.042Z,99896.34
2019-04-05T11:16:58.389Z,99908.04
2019-04-05T11:19:18.411Z,99919.16
2019-04-05T11:21:47.878Z,99921.36
2019-04-05T11:24:13.704Z,99913.46
2019-04-05T11:26:40.383Z,99911.41
2019-04-05T11:29:07.083Z,99908.01
2019-04-05T11:31:34.125Z,99902.92
2019-04-05T11:34:00.891Z,99912.61
2019-04-05T11:36:27.677Z,99914.04
2019-04-05T11:38:54.738Z,99916.69
2019-04-05T11:41:22.436Z,99916.02
2019-04-05T11:43:51.014Z,99919.18
2019-04-05T11:46:18.400Z,99920.06
2019-04-05T11:48:45.819Z,99923.44
2019-04-05T11:51:12.515Z,99914.32
2019-04-05T11:53:39.325Z,99919.05
2019-04-05T11:56:14.373Z,99923.42
2019-04-05T11:58:34.679Z,99913.77
2019-04-05T12:01:23.330Z,99912.88
2019-04-05T12:03:49.729Z,99911.78
2019-04-05T12:06:16.501Z,99913.41
2019-04-05T12:08:43.176Z,99916.30
2019-04-05T12:11:09.954Z,99909.50
2019-04-05T12:13:36.740Z,99913.86
2019-04-05T12:16:05.794Z,99910.13
2019-04-05T12:18:34.427Z,99906.53
2019-04-05T12:21:04.962Z,99907.05
2019-04-05T12:23:32.563Z,99902.04
2019-04-05T12:25:58.257Z,99912.50
2019-04-05T12:28:24.930Z,99911.86
2019-04-05T12:30:51.597Z,99908.76
2019-04-05T12:33:19.667Z,99909.72
2019-04-05T12:35:46.843Z,99909.27
2019-04-05T12:38:31.549Z,99908.17
2019-04-05T12:41:00.331Z,99908.17
2019-04-05T12:43:27.094Z,99915.00
2019-04-05T12:45:53.889Z,99919.44
2019-04-05T12:48:21.132Z,99921.19
2019-04-05T12:51:00.350Z,99916.22
2019-04-05T12:53:16.486Z,99922.59
2019-04-05T12:55:43.262Z,99928.19
2019-04-05T12:58:10.202Z,99933.37
2019-04-05T13:00:38.881Z,99939.91
2019-04-05T13:03:05.551Z,99951.72
2019-04-05T13:05:32.335Z,99951.94
2019-04-05T13:07:59.010Z,99954.13
2019-04-05T13:10:26.473Z,99950.42
2019-04-05T13:12:56.824Z,99946.41
2019-04-05T13:15:22.152Z,99954.45
2019-04-05T13:17:48.810Z,99947.96
2019-04-05T13:20:15.686Z,99945.20
2019-04-05T13:22:42.366Z,99949.64
2019-04-05T13:25:11.089Z,99948.97
2019-04-05T13:27:41.244Z,99954.25
2019-04-05T13:30:06.651Z,99947.66
2019-04-05T13:32:33.298Z,99947.71
2019-04-05T13:35:00.190Z,99950.80
2019-04-05T13:37:28.535Z,99950.38
2019-04-05T13:39:55.552Z,99954.15
2019-04-05T13:42:22.243Z,99957.44
2019-04-05T13:44:49.005Z,99952.65
2019-04-05T13:47:15.805Z,99957.50
2019-04-05T13:49:42.502Z,99958.70
2019-04-05T13:52:12.046Z,99963.40
2019-04-05T13:54:40.360Z,99958.69
2019-04-05T13:57:08.593Z,99956.88
2019-04-05T13:59:37.134Z,99958.08
2019-04-05T14:02:06.414Z,99959.20
2019-04-05T14:04:32.823Z,99958.14
2019-04-05T14:06:59.604Z,99957.14
2019-04-05T14:09:26.386Z,99959.42
2019-04-05T14:11:53.212Z,99949.25
2019-04-05T14:14:19.869Z,99952.68
2019-04-05T14:16:46.553Z,99945.74
2019-04-05T14:19:13.329Z,99951.16
2019-04-05T14:21:45.899Z,99947.37
2019-04-05T14:24:08.629Z,99948.81
2019-04-05T14:26:35.301Z,99949.95
2019-04-05T14:29:03.703Z,99946.17
2019-04-05T14:31:31.634Z,99946.88
2019-04-05T14:33:58.970Z,99938.83
2019-04-05T14:36:25.649Z,99939.31
2019-04-05T14:38:52.343Z,99934.22
2019-04-05T14:41:19.013Z,99936.20
2019-04-05T14:43:45.828Z,99939.83
2019-04-05T14:46:12.739Z,99938.58
2019-04-05T14:48:40.690Z,99935.01
2019-04-05T14:51:07.498Z,99939.64
2019-04-05T14:53:34.298Z,99935.54
2019-04-05T14:56:01.074Z,99939.80
2019-04-05T14:58:27.777Z,99945.45
2019-04-05T15:00:54.791Z,99938.95
2019-04-05T15:03:21.496Z,99942.27
2019-04-05T15:05:48.374Z,99934.56
2019-04-05T15:08:15.357Z,99936.30
2019-04-05T15:10:42.222Z,99939.63
2019-04-05T15:13:10.012Z,99940.44
2019-04-05T15:15:36.697Z,99941.99
2019-04-05T15:18:03.486Z,99947.26
2019-04-05T15:20:30.142Z,99946.08
2019-04-05T15:22:56.839Z,99945.67
2019-04-05T15:25:23.619Z,99944.17
2019-04-05T15:27:55.162Z,99942.33
2019-04-05T15:30:19.057Z,99941.22
2019-04-05T15:32:45.865Z,99946.33
2019-04-05T15:35:12.666Z,99942.68
2019-04-05T15:37:39.440Z,99935.53
2019-04-05T15:40:06.938Z,99934.73
2019-04-05T15:42:34.577Z,99931.37
2019-04-05T15:45:02.097Z,99941.88
2019-04-05T15:47:31.945Z,99943.84
2019-04-05T15:49:59.306Z,99945.88
2019-04-05T15:52:30.101Z,99942.18
2019-04-05T15:54:56.946Z,99941.09
2019-04-05T15:57:24.702Z,99940.31
2019-04-05T15:59:51.412Z,99949.38
2019-04-05T16:02:18.760Z,99957.28
2019-04-05T16:04:45.870Z,99953.54
2019-04-05T16:07:12.586Z,99953.63
2019-04-05T16:09:39.248Z,99954.04
2019-04-05T16:12:06.325Z,99956.98
2019-04-05T16:14:33.093Z,99962.77
2019-04-05T16:16:59.879Z,99956.45
2019-04-05T16:19:26.653Z,99962.45
2019-04-05T16:21:53.438Z,99967.53
2019-04-05T16:24:20.115Z,99974.78
2019-04-05T16:26:46.784Z,99978.09
2019-04-05T16:29:13.466Z,99978.59
2019-04-05T16:31:40.137Z,99981.41
2019-04-05T16:34:06.826Z,99975.66
2019-04-05T16:36:33.786Z,99982.12
2019-04-05T16:39:00.570Z,99988.96
2019-04-05T16:41:27.242Z,99985.30
2019-04-05T16:43:54.038Z,99987.43
2019-04-05T16:46:20.851Z,99989.16
2019-04-05T16:48:47.540Z,99993.19
2019-04-05T16:51:14.543Z,99995.46
2019-04-05T16:54:00.347Z,99993.41
2019-04-05T16:56:27.313Z,99993.92
2019-04-05T16:58:55.206Z,99988.66
2019-04-05T17:01:27.221Z,99984.34
2019-04-05T17:03:50.793Z,99984.83
2019-04-05T17:06:17.498Z,99988.16
2019-04-05T17:08:45.590Z,99990.04
2019-04-05T17:11:12.439Z,99990.19
2019-04-05T17:13:39.548Z,99984.16
2019-04-05T17:16:06.644Z,99994.88
2019-04-05T17:18:33.369Z,100002.39
2019-04-05T17:21:00.058Z,99997.78
2019-04-05T17:23:27.029Z,100004.77
2019-04-05T17:25:54.130Z,100004.47
2019-04-05T17:28:20.812Z,100004.27
2019-04-05T17:30:47.508Z,100004.27
2019-04-05T17:33:14.228Z,99997.05
2019-04-05T17:35:40.919Z,100000.59
2019-04-05T17:38:07.611Z,100007.86
2019-04-05T17:40:34.284Z,100007.29
2019-04-05T17:43:01.154Z,100002.20
2019-04-05T17:45:28.105Z,100002.20
2019-04-05T17:47:55.068Z,100009.23
2019-04-05T17:50:30.679Z,99999.52
2019-04-05T17:53:10.901Z,99999.52
2019-04-05T17:55:26.398Z,100010.00
2019-04-05T17:57:54.725Z,100010.00
2019-04-05T18:00:23.160Z,100022.74
2019-04-05T18:02:49.847Z,100022.74
2019-04-05T18:05:16.552Z,100015.82
2019-04-05T18:07:43.249Z,100015.82
2019-04-05T18:10:10.191Z,100018.59
2019-04-05T18:12:37.114Z,100019.83
2019-04-05T18:15:04.043Z,100028.21
2019-04-05T18:17:31.225Z,100027.20
2019-04-05T18:19:58.049Z,100025.50
2019-04-05T18:22:24.734Z,100033.09
2019-04-05T18:24:51.525Z,100033.95
2019-04-05T18:27:18.321Z,100036.94
2019-04-05T18:29:45.005Z,100036.94
2019-04-05T18:32:12.997Z,100043.07
2019-04-05T18:34:39.711Z,100043.22
2019-04-05T18:37:06.747Z,100043.22
2019-04-05T18:39:33.466Z,100049.34
2019-04-05T18:42:00.172Z,100056.22
2019-04-05T18:44:26.852Z,100053.89
2019-04-05T18:46:53.576Z,100053.89
2019-04-05T18:49:20.953Z,100057.34
2019-04-05T18:51:47.823Z,100051.43
2019-04-05T18:54:14.635Z,100052.29
2019-04-05T18:56:42.510Z,100055.45
2019-04-05T18:59:09.197Z,100054.95
2019-04-05T19:01:35.994Z,100054.95
2019-04-05T19:04:05.407Z,100060.47
2019-04-05T19:06:31.601Z,100064.06
2019-04-05T19:08:58.481Z,100064.06
2019-04-05T19:11:25.435Z,100060.84
2019-04-05T19:14:01.132Z,100059.75
2019-04-05T19:16:21.234Z,100064.99
2019-04-05T19:18:47.930Z,100064.99
2019-04-05T19:21:14.606Z,100062.33
2019-04-05T19:23:50.677Z,100072.39
2019-04-05T19:26:14.901Z,100077.41
2019-04-05T19:28:44.681Z,100077.41
2019-04-05T19:48:58.883Z,100096.52
2019-04-05T19:51:28.620Z,100095.20
2019-04-05T19:54:01.204Z,100095.20
2019-04-05T19:56:24.317Z,100098.64
2019-04-05T19:58:51.246Z,100103.08
2019-04-05T20:01:18.195Z,100104.13
2019-04-05T20:03:44.891Z,100099.41
2019-04-05T20:06:11.583Z,100098.94
2019-04-05T20:08:38.366Z,100098.94
2019-04-05T20:11:05.161Z,100100.98
2019-04-05T20:13:32.283Z,100104.95
2019-04-05T20:15:59.142Z,100093.59
2019-04-05T20:18:26.382Z,100100.33
2019-04-05T20:20:53.221Z,100108.41
2019-04-05T20:23:20.157Z,100103.36
2019-04-05T20:25:47.148Z,100106.95
2019-04-05T20:28:14.282Z,100119.41
2019-04-05T20:30:40.945Z,100109.27
2019-04-05T20:33:07.715Z,100113.45
2019-04-05T20:35:37.074Z,100114.55
2019-04-05T20:38:04.530Z,100114.55
2019-04-05T20:40:32.585Z,100118.47
2019-04-05T20:42:59.953Z,100119.89
2019-04-05T20:45:26.766Z,100119.89
2019-04-05T20:47:53.556Z,100121.55
2019-04-05T20:50:20.355Z,100121.55
2019-04-05T20:52:47.089Z,100125.83
2019-04-05T20:55:13.735Z,100119.33
2019-04-05T20:57:40.419Z,100128.75
2019-04-05T21:00:08.913Z,100131.02
2019-04-05T21:02:37.498Z,100129.06
2019-04-05T21:05:04.861Z,100137.94
2019-04-05T21:07:31.536Z,100138.58
2019-04-05T21:09:58.206Z,100138.58
2019-04-05T21:12:25.007Z,100132.80
2019-04-05T21:14:52.695Z,100127.95
2019-04-05T21:17:19.485Z,100125.89
2019-04-05T21:19:46.198Z,100128.79
2019-04-05T21:22:12.866Z,100135.27
2019-04-05T21:24:39.558Z,100129.94
2019-04-05T21:27:06.241Z,100131.56
2019-04-05T21:29:32.930Z,100135.61
2019-04-05T21:31:59.894Z,100137.98
2019-04-05T21:34:26.585Z,100147.37
2019-04-05T21:36:53.273Z,100147.37
2019-04-05T21:39:19.950Z,100143.39
2019-04-05T21:41:46.758Z,100141.83
2019-04-05T21:44:14.463Z,100140.79
2019-04-05T21:46:41.285Z,100139.28
2019-04-05T21:49:08.097Z,100130.38
2019-04-05T21:51:34.786Z,100130.38
2019-04-05T21:54:01.570Z,100145.16
2019-04-05T21:56:28.258Z,100152.48
2019-04-05T21:58:54.962Z,100152.48
2019-04-05T22:01:22.144Z,100154.20
2019-04-05T22:03:50.840Z,100154.20
2019-04-05T22:06:17.655Z,100155.28
2019-04-05T22:08:44.311Z,100163.97
2019-04-05T22:11:11.089Z,100173.00
2019-04-05T22:13:37.781Z,100164.52
2019-04-05T22:16:05.670Z,100163.84
2019-04-05T22:18:32.354Z,100163.84
2019-04-05T22:20:59.038Z,100171.36
2019-04-05T22:23:25.968Z,100171.36
2019-04-05T22:25:53.053Z,100167.25
2019-04-05T22:28:19.853Z,100168.81
2019-04-05T22:30:46.646Z,100168.81
2019-04-05T22:33:13.356Z,100169.10
2019-04-05T22:35:40.076Z,100170.31
2019-04-05T22:38:06.871Z,100166.19
2019-04-05T22:40:33.542Z,100167.25
2019-04-05T22:43:00.288Z,100171.23
2019-04-05T22:45:26.955Z,100171.23
2019-04-05T22:47:53.742Z,100166.76
2019-04-05T22:50:20.434Z,100159.84
2019-04-05T22:52:47.123Z,100162.81
2019-04-05T22:55:13.909Z,100161.52
2019-04-05T22:57:40.677Z,100160.88
2019-04-05T23:00:07.691Z,100155.75
2019-04-05T23:02:36.381Z,100155.75
2019-04-05T23:05:03.698Z,100156.34
2019-04-05T23:07:30.396Z,100161.07
2019-04-05T23:09:57.116Z,100165.56
2019-04-05T23:12:23.775Z,100165.56
2019-04-05T23:14:50.569Z,100163.06
2019-04-05T23:17:17.224Z,100163.06
2019-04-05T23:19:43.908Z,100162.13
2019-04-05T23:22:10.682Z,100152.98
2019-04-05T23:24:37.454Z,100152.98
2019-04-05T23:27:04.175Z,100143.72
2019-04-05T23:29:30.868Z,100138.38
2019-04-05T23:31:57.529Z,100136.53
2019-04-05T23:34:24.221Z,100140.29
2019-04-05T23:36:51.029Z,100135.06
2019-04-05T23:39:17.799Z,100123.93
2019-04-05T23:41:44.575Z,100118.25
2019-04-05T23:44:11.247Z,100107.88
2019-04-05T23:46:38.067Z,100110.92
2019-04-05T23:49:04.803Z,100118.93
2019-04-05T23:51:31.494Z,100121.98
2019-04-05T23:53:58.186Z,100125.45
2019-04-05T23:56:24.879Z,100129.42
2019-04-05T23:58:51.558Z,100134.03
